Greenwood, Canada
Current Conditions -  °F | °C
As of 7:00 PM on Tuesday 27 Jan 2015 (Local Time) from CYZX Reporting Station
Blowing Snow Blowing Snow  
Wind Chill:   Ceiling: 2000
Heat Index: 23°   Visibility: 3mi
Dew Point: 19°   Wind: 28mph
Humidity: 86%   Direction: 60°ENE
Pressure: 29.53"   Gusts: 36mph
Location:  44.98°N, 64.92°W
Report Text: CYZX 272300Z 06024G31KT 3SM -SHSN BLSN BKN020 OVC037 M05/M07 A2953 RMK SC6SC2 WNDY HILL 07021G34KT VIS VRB 2-4 SLP002
Loading
Personal Weather Stations






























Interactive Weather Map New forecast layout! Learn more

10-Day Weather Forecast

Advertisements
Track Severe Weather on mobile